WRC320 LCLK-DTTA
Flight info
| Callsign | WRC320 |
|---|---|
| Flight time | 2h 57m |
| Altitude | 32000 |
| Route | PHA DCT GENOS DCT TOSKA UM978 PLH/N0445F340 UM978 DEMAG/N0427F300 M978 DOBIX/N0349F180 M978 SONAK/N0438F340 UM978 ADRIL |
| Aircraft | A320/M-SDE3FGHIRWY/LB1 |
Departure
| Time | 2026-04-28 14:31 |
|---|---|
| Airport | Larnaca International Airport (LCLK) |
Arrival
| Time | 2026-04-28 17:28 |
|---|---|
| Airport | Tunis Carthage International Airport (DTTA) |
| Time | Latitude | Longitude | Altitude | Speed | Heading |
|---|---|---|---|---|---|
| 2026-04-28 14:00 | 34.86797 | 33.61051 | 21 ft | 0 kts | 50° |
| 2026-04-28 14:20 | 34.86795 | 33.61049 | 20 ft | 2 kts | 50° |
| 2026-04-28 14:21 | 34.86784 | 33.61033 | 109 ft | 2 kts | 50° |
| 2026-04-28 14:21 | 34.86774 | 33.61017 | 4 ft | 2 kts | 50° |
| 2026-04-28 14:21 | 34.86762 | 33.61001 | 2 ft | 3 kts | 55° |
| 2026-04-28 14:21 | 34.86755 | 33.60982 | 22 ft | 2 kts | 75° |
| 2026-04-28 14:22 | 34.86751 | 33.60962 | 21 ft | 2 kts | 75° |
| 2026-04-28 14:22 | 34.86748 | 33.60940 | 22 ft | 3 kts | 105° |
| 2026-04-28 14:22 | 34.86751 | 33.60928 | 22 ft | 0 kts | 126° |
| 2026-04-28 14:25 | 34.86738 | 33.60950 | 22 ft | 7 kts | 126° |
| 2026-04-28 14:25 | 34.86709 | 33.60989 | 20 ft | 5 kts | 135° |
| 2026-04-28 14:25 | 34.86685 | 33.61018 | 20 ft | 6 kts | 135° |
| 2026-04-28 14:26 | 34.86655 | 33.61055 | 20 ft | 8 kts | 135° |
| 2026-04-28 14:26 | 34.86613 | 33.61079 | 21 ft | 6 kts | 180° |
| 2026-04-28 14:26 | 34.86565 | 33.61043 | 22 ft | 10 kts | 216° |
| 2026-04-28 14:26 | 34.86490 | 33.61048 | 21 ft | 13 kts | 133° |
| 2026-04-28 14:27 | 34.86478 | 33.61119 | 21 ft | 6 kts | 79° |
| 2026-04-28 14:27 | 34.86480 | 33.61129 | 21 ft | 0 kts | 76° |
| 2026-04-28 14:28 | 34.86485 | 33.61154 | 21 ft | 7 kts | 76° |
| 2026-04-28 14:29 | 34.86503 | 33.61238 | 24 ft | 12 kts | 72° |
| 2026-04-28 14:29 | 34.86534 | 33.61337 | 24 ft | 12 kts | 70° |
| 2026-04-28 14:29 | 34.86560 | 33.61398 | 21 ft | 0 kts | 46° |
| 2026-04-28 14:30 | 34.86567 | 33.61407 | 21 ft | 11 kts | 46° |
| 2026-04-28 14:30 | 34.86796 | 33.61689 | 20 ft | 85 kts | 45° |
| 2026-04-28 14:30 | 34.87371 | 33.62384 | 20 ft | 145 kts | 45° |
| 2026-04-28 14:31 | 34.88197 | 33.63432 | 85 ft | 186 kts | 46° |
| 2026-04-28 14:31 | 34.89076 | 33.64556 | 792 ft | 181 kts | 49° |
| 2026-04-28 14:31 | 34.89917 | 33.65693 | 1549 ft | 180 kts | 46° |
| 2026-04-28 14:31 | 34.90791 | 33.66848 | 2039 ft | 195 kts | 46° |
| 2026-04-28 14:32 | 34.91449 | 33.68393 | 2287 ft | 222 kts | 85° |
| 2026-04-28 14:32 | 34.91124 | 33.70275 | 2747 ft | 237 kts | 125° |
| 2026-04-28 14:32 | 34.89847 | 33.71512 | 3427 ft | 240 kts | 165° |
| 2026-04-28 14:32 | 34.88212 | 33.71514 | 4152 ft | 238 kts | 205° |
| 2026-04-28 14:33 | 34.86957 | 33.70289 | 4902 ft | 234 kts | 243° |
| 2026-04-28 14:33 | 34.86618 | 33.68402 | 5670 ft | 231 kts | 276° |
| 2026-04-28 14:33 | 34.86807 | 33.66453 | 6454 ft | 235 kts | 278° |
| 2026-04-28 14:33 | 34.87017 | 33.64462 | 7237 ft | 237 kts | 278° |
| 2026-04-28 14:34 | 34.86996 | 33.60337 | 8494 ft | 263 kts | 263° |
| 2026-04-28 14:34 | 34.86709 | 33.58081 | 9070 ft | 276 kts | 261° |
| 2026-04-28 14:34 | 34.86379 | 33.55744 | 9865 ft | 282 kts | 261° |
| 2026-04-28 14:35 | 34.86026 | 33.53319 | 10391 ft | 297 kts | 261° |
| 2026-04-28 14:35 | 34.85651 | 33.50737 | 10671 ft | 321 kts | 261° |
| 2026-04-28 14:35 | 34.85256 | 33.48000 | 11156 ft | 334 kts | 261° |
| 2026-04-28 14:35 | 34.84858 | 33.45197 | 11886 ft | 339 kts | 261° |
| 2026-04-28 14:36 | 34.84456 | 33.42350 | 12692 ft | 343 kts | 261° |
| 2026-04-28 14:36 | 34.84055 | 33.39495 | 13481 ft | 346 kts | 261° |
| 2026-04-28 14:36 | 34.83642 | 33.36589 | 14212 ft | 350 kts | 261° |
| 2026-04-28 14:36 | 34.83231 | 33.33701 | 14890 ft | 353 kts | 261° |
| 2026-04-28 14:37 | 34.82809 | 33.30737 | 15563 ft | 356 kts | 261° |
| 2026-04-28 14:37 | 34.82383 | 33.27755 | 16248 ft | 359 kts | 261° |
| 2026-04-28 14:37 | 34.81948 | 33.24729 | 16921 ft | 363 kts | 261° |
| 2026-04-28 14:37 | 34.81507 | 33.21659 | 17590 ft | 366 kts | 261° |
| 2026-04-28 14:38 | 34.81069 | 33.18603 | 18225 ft | 369 kts | 261° |
| 2026-04-28 14:38 | 34.80630 | 33.15545 | 18783 ft | 372 kts | 261° |
| 2026-04-28 14:38 | 34.80181 | 33.12426 | 19356 ft | 375 kts | 261° |
| 2026-04-28 14:38 | 34.79733 | 33.09294 | 19923 ft | 378 kts | 261° |
| 2026-04-28 14:39 | 34.79281 | 33.06126 | 20493 ft | 381 kts | 261° |
| 2026-04-28 14:39 | 34.78825 | 33.02890 | 21069 ft | 384 kts | 261° |
| 2026-04-28 14:39 | 34.78376 | 32.99681 | 21641 ft | 387 kts | 261° |
| 2026-04-28 14:39 | 34.77921 | 32.96435 | 22194 ft | 390 kts | 261° |
| 2026-04-28 14:40 | 34.77458 | 32.93179 | 22744 ft | 393 kts | 261° |
| 2026-04-28 14:40 | 34.77142 | 32.90963 | 23112 ft | 395 kts | 261° |
| 2026-04-28 14:40 | 34.76514 | 32.86586 | 23758 ft | 399 kts | 261° |
| 2026-04-28 14:40 | 34.76034 | 32.83248 | 24204 ft | 401 kts | 261° |
| 2026-04-28 14:41 | 34.75554 | 32.79895 | 24634 ft | 404 kts | 261° |
| 2026-04-28 14:41 | 34.75072 | 32.76524 | 25066 ft | 406 kts | 260° |
| 2026-04-28 14:41 | 34.74582 | 32.73133 | 25470 ft | 409 kts | 260° |
| 2026-04-28 14:41 | 34.74086 | 32.69715 | 25879 ft | 411 kts | 260° |
| 2026-04-28 14:42 | 34.73580 | 32.66292 | 26282 ft | 413 kts | 260° |
| 2026-04-28 14:42 | 34.73062 | 32.62841 | 26678 ft | 416 kts | 260° |
| 2026-04-28 14:42 | 34.72536 | 32.59375 | 27075 ft | 418 kts | 260° |
| 2026-04-28 14:42 | 34.72003 | 32.55894 | 27461 ft | 420 kts | 260° |
| 2026-04-28 14:43 | 34.71464 | 32.52390 | 27842 ft | 422 kts | 260° |
| 2026-04-28 14:43 | 34.71085 | 32.48856 | 28208 ft | 424 kts | 266° |
| 2026-04-28 14:43 | 34.70894 | 32.45266 | 28565 ft | 426 kts | 266° |
| 2026-04-28 14:43 | 34.70705 | 32.41661 | 28912 ft | 428 kts | 266° |
| 2026-04-28 14:44 | 34.70516 | 32.38042 | 29254 ft | 430 kts | 266° |
| 2026-04-28 14:44 | 34.70325 | 32.34405 | 29581 ft | 432 kts | 266° |
| 2026-04-28 14:44 | 34.70132 | 32.30759 | 29911 ft | 434 kts | 266° |
| 2026-04-28 14:44 | 34.69937 | 32.27089 | 30185 ft | 436 kts | 266° |
| 2026-04-28 14:45 | 34.69741 | 32.23410 | 30447 ft | 437 kts | 266° |
| 2026-04-28 14:45 | 34.69543 | 32.19715 | 30701 ft | 439 kts | 266° |
| 2026-04-28 14:45 | 34.69342 | 32.16012 | 30967 ft | 439 kts | 266° |
| 2026-04-28 14:45 | 34.69141 | 32.12323 | 31319 ft | 438 kts | 266° |
| 2026-04-28 14:46 | 34.68939 | 32.08634 | 31673 ft | 436 kts | 266° |
| 2026-04-28 14:46 | 34.68734 | 32.04955 | 31912 ft | 436 kts | 266° |
| 2026-04-28 14:46 | 34.68528 | 32.01320 | 31962 ft | 427 kts | 266° |
| 2026-04-28 14:47 | 34.68111 | 31.94168 | 31960 ft | 420 kts | 266° |
| 2026-04-28 14:47 | 34.68360 | 31.87117 | 31958 ft | 418 kts | 281° |
| 2026-04-28 14:48 | 34.69494 | 31.80186 | 31959 ft | 419 kts | 281° |
| 2026-04-28 14:48 | 34.70588 | 31.73224 | 31959 ft | 419 kts | 281° |
| 2026-04-28 14:49 | 34.71675 | 31.66285 | 31956 ft | 419 kts | 281° |
| 2026-04-28 14:49 | 34.72758 | 31.59380 | 31954 ft | 418 kts | 281° |
| 2026-04-28 14:50 | 34.73853 | 31.52386 | 31950 ft | 418 kts | 281° |
| 2026-04-28 14:50 | 34.74932 | 31.45461 | 31944 ft | 418 kts | 281° |
| 2026-04-28 14:51 | 34.76024 | 31.38466 | 31944 ft | 418 kts | 281° |
| 2026-04-28 14:51 | 34.77100 | 31.31531 | 31942 ft | 417 kts | 281° |
| 2026-04-28 14:52 | 34.78169 | 31.24571 | 31941 ft | 417 kts | 280° |
| 2026-04-28 14:52 | 34.79233 | 31.17634 | 31939 ft | 417 kts | 281° |
| 2026-04-28 14:53 | 34.80292 | 31.10697 | 31940 ft | 417 kts | 281° |
| 2026-04-28 14:53 | 34.81356 | 31.03751 | 31941 ft | 417 kts | 280° |
| 2026-04-28 14:54 | 34.82239 | 30.97926 | 31939 ft | 418 kts | 280° |
| 2026-04-28 14:54 | 34.83291 | 30.90989 | 31937 ft | 417 kts | 280° |
| 2026-04-28 14:55 | 34.84343 | 30.84030 | 31940 ft | 418 kts | 280° |
| 2026-04-28 14:55 | 34.85385 | 30.77074 | 31942 ft | 418 kts | 280° |
| 2026-04-28 14:56 | 34.86424 | 30.70114 | 31946 ft | 418 kts | 280° |
| 2026-04-28 14:56 | 34.87462 | 30.63146 | 31943 ft | 418 kts | 280° |
| 2026-04-28 14:57 | 34.88491 | 30.56183 | 31945 ft | 418 kts | 280° |
| 2026-04-28 14:57 | 34.89521 | 30.49218 | 31945 ft | 418 kts | 280° |
| 2026-04-28 14:58 | 34.90547 | 30.42258 | 31941 ft | 417 kts | 280° |
| 2026-04-28 14:58 | 34.91562 | 30.35300 | 31943 ft | 417 kts | 280° |
| 2026-04-28 14:59 | 34.92580 | 30.28339 | 31940 ft | 417 kts | 280° |
| 2026-04-28 14:59 | 34.93592 | 30.21391 | 31936 ft | 417 kts | 280° |
| 2026-04-28 15:00 | 34.94591 | 30.14443 | 31936 ft | 417 kts | 280° |
| 2026-04-28 15:00 | 34.95591 | 30.07481 | 31930 ft | 417 kts | 280° |
| 2026-04-28 15:01 | 34.96581 | 30.00519 | 31934 ft | 418 kts | 278° |
| 2026-04-28 15:01 | 34.96951 | 29.93430 | 31930 ft | 418 kts | 274° |
| 2026-04-28 15:02 | 34.97240 | 29.86342 | 31929 ft | 419 kts | 274° |
| 2026-04-28 15:02 | 34.97524 | 29.79207 | 31929 ft | 419 kts | 274° |
| 2026-04-28 15:03 | 34.97814 | 29.72104 | 31927 ft | 419 kts | 274° |
| 2026-04-28 15:03 | 34.98104 | 29.65007 | 31933 ft | 419 kts | 274° |
| 2026-04-28 15:04 | 34.98382 | 29.57922 | 31933 ft | 419 kts | 274° |
| 2026-04-28 15:04 | 34.98659 | 29.50826 | 31931 ft | 419 kts | 274° |
| 2026-04-28 15:05 | 34.98926 | 29.43742 | 31933 ft | 419 kts | 274° |
| 2026-04-28 15:05 | 34.99192 | 29.36637 | 31932 ft | 419 kts | 274° |
| 2026-04-28 15:06 | 34.99454 | 29.29544 | 31935 ft | 419 kts | 274° |
| 2026-04-28 15:06 | 34.99716 | 29.22444 | 31936 ft | 419 kts | 274° |
| 2026-04-28 15:07 | 34.99966 | 29.15350 | 31935 ft | 419 kts | 274° |
| 2026-04-28 15:07 | 35.00216 | 29.08254 | 31938 ft | 419 kts | 274° |
| 2026-04-28 15:08 | 35.00463 | 29.01172 | 31940 ft | 418 kts | 274° |
| 2026-04-28 15:08 | 35.00711 | 28.94074 | 31938 ft | 418 kts | 274° |
| 2026-04-28 15:09 | 35.00952 | 28.86942 | 31944 ft | 418 kts | 274° |
| 2026-04-28 15:09 | 35.01183 | 28.79870 | 31944 ft | 418 kts | 274° |
| 2026-04-28 15:10 | 35.01410 | 28.72768 | 31948 ft | 418 kts | 274° |
| 2026-04-28 15:10 | 35.01635 | 28.65688 | 31948 ft | 418 kts | 274° |
| 2026-04-28 15:11 | 35.01857 | 28.58552 | 31952 ft | 418 kts | 274° |
| 2026-04-28 15:11 | 35.02072 | 28.51423 | 31953 ft | 418 kts | 274° |
| 2026-04-28 15:12 | 35.02286 | 28.44348 | 31954 ft | 418 kts | 274° |
| 2026-04-28 15:12 | 35.02495 | 28.37268 | 31955 ft | 417 kts | 274° |
| 2026-04-28 15:13 | 35.02698 | 28.30198 | 31955 ft | 417 kts | 274° |
| 2026-04-28 15:13 | 35.02894 | 28.23083 | 31962 ft | 417 kts | 274° |
| 2026-04-28 15:14 | 35.03083 | 28.15998 | 31963 ft | 417 kts | 273° |
| 2026-04-28 15:14 | 35.03272 | 28.08885 | 31963 ft | 417 kts | 273° |
| 2026-04-28 15:15 | 35.03460 | 28.01819 | 31964 ft | 416 kts | 274° |
| 2026-04-28 15:15 | 35.03641 | 27.94713 | 31969 ft | 416 kts | 273° |
| 2026-04-28 15:16 | 35.03817 | 27.87563 | 31976 ft | 416 kts | 273° |
| 2026-04-28 15:16 | 35.03987 | 27.80506 | 31969 ft | 416 kts | 273° |
| 2026-04-28 15:17 | 35.04129 | 27.74660 | 31968 ft | 415 kts | 273° |
| 2026-04-28 15:17 | 35.04323 | 27.66409 | 31969 ft | 415 kts | 273° |
| 2026-04-28 15:18 | 35.04458 | 27.60524 | 31973 ft | 415 kts | 273° |
| 2026-04-28 15:18 | 35.04611 | 27.53375 | 31991 ft | 415 kts | 273° |
| 2026-04-28 15:19 | 35.04764 | 27.46300 | 31982 ft | 414 kts | 273° |
| 2026-04-28 15:19 | 35.04919 | 27.39275 | 31985 ft | 414 kts | 273° |
| 2026-04-28 15:20 | 35.05066 | 27.32253 | 31990 ft | 414 kts | 273° |
| 2026-04-28 15:20 | 35.05207 | 27.25217 | 31993 ft | 413 kts | 273° |
| 2026-04-28 15:21 | 35.05343 | 27.18137 | 31993 ft | 413 kts | 273° |
| 2026-04-28 15:21 | 35.05473 | 27.11141 | 31993 ft | 412 kts | 273° |
| 2026-04-28 15:22 | 35.05605 | 27.04153 | 31992 ft | 412 kts | 273° |
| 2026-04-28 15:22 | 35.05731 | 26.97212 | 31998 ft | 411 kts | 273° |
| 2026-04-28 15:23 | 35.05855 | 26.90200 | 31991 ft | 411 kts | 273° |
| 2026-04-28 15:23 | 35.05970 | 26.83218 | 31992 ft | 411 kts | 273° |
| 2026-04-28 15:24 | 35.06080 | 26.76255 | 31992 ft | 410 kts | 273° |
| 2026-04-28 15:24 | 35.06184 | 26.69302 | 31996 ft | 410 kts | 273° |
| 2026-04-28 15:25 | 35.06288 | 26.62353 | 31996 ft | 409 kts | 273° |
| 2026-04-28 15:25 | 35.06390 | 26.55421 | 32001 ft | 409 kts | 273° |
| 2026-04-28 15:26 | 35.06483 | 26.48478 | 32000 ft | 408 kts | 273° |
| 2026-04-28 15:26 | 35.06571 | 26.41547 | 32011 ft | 408 kts | 273° |
| 2026-04-28 15:27 | 35.06654 | 26.34621 | 32003 ft | 408 kts | 273° |
| 2026-04-28 15:27 | 35.06736 | 26.27694 | 32007 ft | 408 kts | 273° |
| 2026-04-28 15:28 | 35.06823 | 26.20770 | 32010 ft | 408 kts | 273° |
| 2026-04-28 15:28 | 35.07081 | 26.13822 | 32009 ft | 407 kts | 277° |
| 2026-04-28 15:29 | 35.07634 | 26.07006 | 32018 ft | 406 kts | 278° |
| 2026-04-28 15:29 | 35.08218 | 26.00154 | 32015 ft | 406 kts | 278° |
| 2026-04-28 15:30 | 35.08733 | 25.93244 | 32014 ft | 406 kts | 277° |
| 2026-04-28 15:30 | 35.09209 | 25.86391 | 32017 ft | 406 kts | 277° |
| 2026-04-28 15:31 | 35.09685 | 25.79517 | 32020 ft | 406 kts | 277° |
| 2026-04-28 15:31 | 35.10169 | 25.72659 | 32025 ft | 405 kts | 277° |
| 2026-04-28 15:32 | 35.10654 | 25.65796 | 32029 ft | 405 kts | 277° |
| 2026-04-28 15:32 | 35.11140 | 25.58945 | 32033 ft | 405 kts | 277° |
| 2026-04-28 15:33 | 35.11612 | 25.52091 | 32031 ft | 405 kts | 277° |
| 2026-04-28 15:33 | 35.12071 | 25.45243 | 32040 ft | 405 kts | 277° |
| 2026-04-28 15:34 | 35.12532 | 25.38389 | 32051 ft | 404 kts | 277° |
| 2026-04-28 15:34 | 35.12994 | 25.31549 | 32057 ft | 405 kts | 277° |
| 2026-04-28 15:35 | 35.13444 | 25.24697 | 32061 ft | 405 kts | 277° |
| 2026-04-28 15:35 | 35.14113 | 25.14427 | 32059 ft | 404 kts | 277° |
| 2026-04-28 15:36 | 35.14571 | 25.07592 | 32058 ft | 404 kts | 277° |
| 2026-04-28 15:36 | 35.15015 | 25.00744 | 32061 ft | 404 kts | 277° |
| 2026-04-28 15:37 | 35.15443 | 24.93901 | 32051 ft | 403 kts | 277° |
| 2026-04-28 15:37 | 35.15804 | 24.88216 | 32052 ft | 404 kts | 277° |
| 2026-04-28 15:38 | 35.16324 | 24.80203 | 32048 ft | 405 kts | 277° |
| 2026-04-28 15:38 | 35.16759 | 24.73388 | 32050 ft | 405 kts | 277° |
| 2026-04-28 15:39 | 35.17183 | 24.66524 | 32048 ft | 404 kts | 277° |
| 2026-04-28 15:39 | 35.17603 | 24.59676 | 32057 ft | 404 kts | 277° |
| 2026-04-28 15:40 | 35.18015 | 24.52838 | 32053 ft | 404 kts | 277° |
| 2026-04-28 15:40 | 35.18418 | 24.45981 | 32051 ft | 404 kts | 277° |
| 2026-04-28 15:41 | 35.18816 | 24.39135 | 32053 ft | 404 kts | 277° |
| 2026-04-28 15:41 | 35.19212 | 24.32293 | 32046 ft | 404 kts | 277° |
| 2026-04-28 15:42 | 35.19614 | 24.25448 | 32050 ft | 404 kts | 277° |
| 2026-04-28 15:42 | 35.20010 | 24.18605 | 32053 ft | 404 kts | 277° |
| 2026-04-28 15:43 | 35.20395 | 24.11761 | 32053 ft | 403 kts | 277° |
| 2026-04-28 15:43 | 35.20776 | 24.04932 | 32048 ft | 403 kts | 277° |
| 2026-04-28 15:44 | 35.21151 | 23.98078 | 32052 ft | 403 kts | 277° |
| 2026-04-28 15:44 | 35.21529 | 23.91246 | 32054 ft | 403 kts | 277° |
| 2026-04-28 15:45 | 35.21904 | 23.84404 | 32051 ft | 403 kts | 277° |
| 2026-04-28 15:45 | 35.22266 | 23.77570 | 32050 ft | 402 kts | 277° |
| 2026-04-28 15:46 | 35.22626 | 23.70745 | 32044 ft | 402 kts | 277° |
| 2026-04-28 15:46 | 35.23275 | 23.63987 | 32043 ft | 400 kts | 281° |
| 2026-04-28 15:47 | 35.24120 | 23.57264 | 32040 ft | 399 kts | 281° |
| 2026-04-28 15:47 | 35.24958 | 23.50554 | 32037 ft | 399 kts | 281° |
| 2026-04-28 15:48 | 35.25788 | 23.43845 | 32036 ft | 399 kts | 281° |
| 2026-04-28 15:48 | 35.26481 | 23.38223 | 32037 ft | 399 kts | 281° |
| 2026-04-28 15:49 | 35.27307 | 23.31513 | 32040 ft | 399 kts | 281° |
| 2026-04-28 15:49 | 35.28134 | 23.24806 | 32043 ft | 399 kts | 281° |
| 2026-04-28 15:50 | 35.28943 | 23.18092 | 32048 ft | 399 kts | 281° |
| 2026-04-28 15:50 | 35.29745 | 23.11419 | 32052 ft | 399 kts | 281° |
| 2026-04-28 15:51 | 35.30556 | 23.04707 | 32054 ft | 398 kts | 281° |
| 2026-04-28 15:51 | 35.31366 | 22.98001 | 32058 ft | 398 kts | 281° |
| 2026-04-28 15:52 | 35.32171 | 22.91296 | 32061 ft | 398 kts | 281° |
| 2026-04-28 15:52 | 35.32967 | 22.84595 | 32066 ft | 398 kts | 281° |
| 2026-04-28 15:53 | 35.33760 | 22.77898 | 32071 ft | 397 kts | 281° |
| 2026-04-28 15:53 | 35.34546 | 22.71210 | 32072 ft | 397 kts | 281° |
| 2026-04-28 15:54 | 35.35325 | 22.64502 | 32084 ft | 397 kts | 281° |
| 2026-04-28 15:54 | 35.36107 | 22.57810 | 32084 ft | 397 kts | 281° |
| 2026-04-28 15:55 | 35.36881 | 22.51121 | 32090 ft | 396 kts | 281° |
| 2026-04-28 15:55 | 35.37649 | 22.44436 | 32088 ft | 396 kts | 281° |
| 2026-04-28 15:56 | 35.38411 | 22.37785 | 32093 ft | 395 kts | 281° |
| 2026-04-28 15:56 | 35.39177 | 22.31115 | 32092 ft | 395 kts | 281° |
| 2026-04-28 15:57 | 35.39933 | 22.24456 | 32095 ft | 394 kts | 281° |
| 2026-04-28 15:57 | 35.40692 | 22.17767 | 32091 ft | 393 kts | 281° |
| 2026-04-28 15:58 | 35.41440 | 22.11128 | 32091 ft | 393 kts | 281° |
| 2026-04-28 15:58 | 35.42182 | 22.04509 | 32088 ft | 392 kts | 281° |
| 2026-04-28 15:59 | 35.42919 | 21.97883 | 32088 ft | 392 kts | 281° |
| 2026-04-28 15:59 | 35.43655 | 21.91258 | 32089 ft | 391 kts | 281° |
| 2026-04-28 16:00 | 35.44383 | 21.84646 | 32087 ft | 391 kts | 281° |
| 2026-04-28 16:00 | 35.45116 | 21.77894 | 32012 ft | 412 kts | 277° |
| 2026-04-28 16:01 | 35.45509 | 21.74314 | 32014 ft | 424 kts | 277° |
| 2026-04-28 16:01 | 35.45909 | 21.70688 | 32011 ft | 433 kts | 277° |
| 2026-04-28 16:01 | 35.46717 | 21.63301 | 32009 ft | 439 kts | 277° |
| 2026-04-28 16:02 | 35.47518 | 21.55865 | 32009 ft | 439 kts | 277° |
| 2026-04-28 16:02 | 35.48321 | 21.48374 | 32009 ft | 440 kts | 277° |
| 2026-04-28 16:03 | 35.49107 | 21.40996 | 32009 ft | 440 kts | 277° |
| 2026-04-28 16:03 | 35.49898 | 21.33509 | 32008 ft | 440 kts | 277° |
| 2026-04-28 16:04 | 35.50682 | 21.26059 | 32007 ft | 440 kts | 277° |
| 2026-04-28 16:04 | 35.51467 | 21.18630 | 32005 ft | 439 kts | 277° |
| 2026-04-28 16:05 | 35.52237 | 21.11192 | 32001 ft | 439 kts | 277° |
| 2026-04-28 16:05 | 35.52989 | 21.03756 | 31999 ft | 439 kts | 277° |
| 2026-04-28 16:06 | 35.53734 | 20.96319 | 31997 ft | 439 kts | 277° |
| 2026-04-28 16:06 | 35.54481 | 20.88891 | 31995 ft | 438 kts | 277° |
| 2026-04-28 16:07 | 35.55221 | 20.81456 | 31989 ft | 439 kts | 276° |
| 2026-04-28 16:08 | 35.56314 | 20.70312 | 31996 ft | 439 kts | 276° |
| 2026-04-28 16:08 | 35.57078 | 20.62824 | 31996 ft | 439 kts | 277° |
| 2026-04-28 16:09 | 35.58230 | 20.51718 | 31998 ft | 439 kts | 277° |
| 2026-04-28 16:10 | 35.59351 | 20.40501 | 31999 ft | 439 kts | 277° |
| 2026-04-28 16:10 | 35.60465 | 20.29334 | 32001 ft | 439 kts | 276° |
| 2026-04-28 16:11 | 35.61932 | 20.14500 | 32001 ft | 439 kts | 277° |
| 2026-04-28 16:12 | 35.63050 | 20.03284 | 31999 ft | 439 kts | 276° |
| 2026-04-28 16:13 | 35.64146 | 19.92116 | 32000 ft | 439 kts | 276° |
| 2026-04-28 16:14 | 35.65584 | 19.77220 | 32001 ft | 439 kts | 276° |
| 2026-04-28 16:15 | 35.66920 | 19.62327 | 31998 ft | 438 kts | 276° |
| 2026-04-28 16:15 | 35.67591 | 19.54870 | 31997 ft | 438 kts | 276° |
| 2026-04-28 16:16 | 35.68591 | 19.43695 | 31999 ft | 438 kts | 276° |
| 2026-04-28 16:17 | 35.69568 | 19.32508 | 32000 ft | 438 kts | 276° |
| 2026-04-28 16:17 | 35.70217 | 19.25047 | 31999 ft | 438 kts | 276° |
| 2026-04-28 16:18 | 35.70866 | 19.17602 | 31998 ft | 438 kts | 276° |
| 2026-04-28 16:18 | 35.71510 | 19.10159 | 31997 ft | 438 kts | 276° |
| 2026-04-28 16:19 | 35.72146 | 19.02696 | 31996 ft | 438 kts | 276° |
| 2026-04-28 16:19 | 35.72780 | 18.95253 | 31996 ft | 438 kts | 275° |
| 2026-04-28 16:20 | 35.73399 | 18.87786 | 31996 ft | 438 kts | 275° |
| 2026-04-28 16:20 | 35.74019 | 18.80337 | 31997 ft | 438 kts | 275° |
| 2026-04-28 16:21 | 35.74644 | 18.72872 | 31998 ft | 438 kts | 276° |
| 2026-04-28 16:21 | 35.75266 | 18.65413 | 31999 ft | 438 kts | 275° |
| 2026-04-28 16:22 | 35.75770 | 18.59212 | 31998 ft | 438 kts | 275° |
| 2026-04-28 16:22 | 35.76368 | 18.51761 | 31999 ft | 438 kts | 275° |
| 2026-04-28 16:23 | 35.76967 | 18.44287 | 32000 ft | 438 kts | 275° |
| 2026-04-28 16:23 | 35.77562 | 18.36819 | 32001 ft | 438 kts | 275° |
| 2026-04-28 16:24 | 35.78155 | 18.29357 | 31999 ft | 438 kts | 275° |
| 2026-04-28 16:24 | 35.78740 | 18.21906 | 31997 ft | 437 kts | 275° |
| 2026-04-28 16:25 | 35.79329 | 18.14394 | 31996 ft | 437 kts | 275° |
| 2026-04-28 16:25 | 35.79914 | 18.06934 | 31996 ft | 437 kts | 275° |
| 2026-04-28 16:26 | 35.80494 | 17.99482 | 31995 ft | 437 kts | 275° |
| 2026-04-28 16:26 | 35.81065 | 17.92024 | 31988 ft | 437 kts | 275° |
| 2026-04-28 16:27 | 35.81630 | 17.84611 | 31997 ft | 438 kts | 275° |
| 2026-04-28 16:28 | 35.82475 | 17.73373 | 31997 ft | 437 kts | 275° |
| 2026-04-28 16:28 | 35.83034 | 17.65902 | 31997 ft | 437 kts | 275° |
| 2026-04-28 16:29 | 35.83862 | 17.54713 | 31998 ft | 438 kts | 275° |
| 2026-04-28 16:30 | 35.84680 | 17.43498 | 32000 ft | 438 kts | 275° |
| 2026-04-28 16:30 | 35.85210 | 17.36044 | 31999 ft | 437 kts | 275° |
| 2026-04-28 16:31 | 35.85742 | 17.28582 | 31998 ft | 437 kts | 275° |
| 2026-04-28 16:31 | 35.86273 | 17.21102 | 31997 ft | 437 kts | 275° |
| 2026-04-28 16:32 | 35.86798 | 17.13589 | 31997 ft | 437 kts | 275° |
| 2026-04-28 16:32 | 35.87567 | 17.02437 | 31998 ft | 437 kts | 274° |
| 2026-04-28 16:33 | 35.87992 | 16.96184 | 31998 ft | 437 kts | 274° |
| 2026-04-28 16:33 | 35.88588 | 16.87524 | 31999 ft | 437 kts | 275° |
| 2026-04-28 16:34 | 35.89102 | 16.80029 | 31999 ft | 437 kts | 274° |
| 2026-04-28 16:34 | 35.89601 | 16.72564 | 32000 ft | 437 kts | 274° |
| 2026-04-28 16:35 | 35.90098 | 16.65096 | 32000 ft | 437 kts | 274° |
| 2026-04-28 16:35 | 35.90590 | 16.57618 | 32001 ft | 437 kts | 274° |
| 2026-04-28 16:36 | 35.91074 | 16.50147 | 32001 ft | 437 kts | 274° |
| 2026-04-28 16:36 | 35.91554 | 16.42629 | 32001 ft | 437 kts | 274° |
| 2026-04-28 16:37 | 35.92036 | 16.35155 | 32000 ft | 437 kts | 274° |
| 2026-04-28 16:38 | 35.92737 | 16.23993 | 32000 ft | 437 kts | 274° |
| 2026-04-28 16:38 | 35.93208 | 16.16468 | 32001 ft | 437 kts | 274° |
| 2026-04-28 16:39 | 35.93663 | 16.09045 | 32001 ft | 437 kts | 274° |
| 2026-04-28 16:39 | 35.94116 | 16.01579 | 31999 ft | 436 kts | 274° |
| 2026-04-28 16:40 | 35.94571 | 15.94109 | 31998 ft | 436 kts | 274° |
| 2026-04-28 16:40 | 35.95020 | 15.86637 | 31998 ft | 436 kts | 274° |
| 2026-04-28 16:41 | 35.95463 | 15.79166 | 32000 ft | 437 kts | 274° |
| 2026-04-28 16:41 | 35.95899 | 15.71690 | 32000 ft | 436 kts | 274° |
| 2026-04-28 16:42 | 35.96324 | 15.64218 | 31999 ft | 436 kts | 274° |
| 2026-04-28 16:42 | 35.96750 | 15.56766 | 31997 ft | 436 kts | 274° |
| 2026-04-28 16:43 | 35.97178 | 15.49238 | 31996 ft | 436 kts | 274° |
| 2026-04-28 16:43 | 35.97600 | 15.41771 | 31997 ft | 436 kts | 274° |
| 2026-04-28 16:44 | 35.98016 | 15.34298 | 31998 ft | 436 kts | 274° |
| 2026-04-28 16:44 | 35.98426 | 15.26833 | 31998 ft | 436 kts | 274° |
| 2026-04-28 16:45 | 35.98821 | 15.19358 | 31999 ft | 436 kts | 273° |
| 2026-04-28 16:45 | 35.99218 | 15.11880 | 32001 ft | 436 kts | 273° |
| 2026-04-28 16:46 | 35.99621 | 15.04406 | 32002 ft | 436 kts | 274° |
| 2026-04-28 16:46 | 36.00015 | 14.96923 | 32002 ft | 436 kts | 273° |
| 2026-04-28 16:47 | 36.00394 | 14.89454 | 31999 ft | 436 kts | 273° |
| 2026-04-28 16:47 | 36.00775 | 14.82039 | 31997 ft | 436 kts | 273° |
| 2026-04-28 16:48 | 36.01158 | 14.74577 | 31997 ft | 436 kts | 273° |
| 2026-04-28 16:48 | 36.01533 | 14.67099 | 31999 ft | 436 kts | 273° |
| 2026-04-28 16:49 | 36.01900 | 14.59628 | 32000 ft | 436 kts | 273° |
| 2026-04-28 16:49 | 36.02263 | 14.52155 | 31999 ft | 436 kts | 273° |
| 2026-04-28 16:50 | 36.02620 | 14.44693 | 31998 ft | 435 kts | 273° |
| 2026-04-28 16:50 | 36.02967 | 14.37224 | 31996 ft | 435 kts | 273° |
| 2026-04-28 16:51 | 36.03310 | 14.29712 | 31996 ft | 435 kts | 273° |
| 2026-04-28 16:51 | 36.03666 | 14.22294 | 31992 ft | 435 kts | 275° |
| 2026-04-28 16:52 | 36.05009 | 14.15024 | 31989 ft | 435 kts | 285° |
| 2026-04-28 16:52 | 36.06684 | 14.07833 | 31989 ft | 435 kts | 285° |
| 2026-04-28 16:53 | 36.08353 | 14.00642 | 31991 ft | 435 kts | 285° |
| 2026-04-28 16:53 | 36.10012 | 13.93443 | 31995 ft | 435 kts | 285° |
| 2026-04-28 16:54 | 36.11663 | 13.86241 | 31996 ft | 435 kts | 285° |
| 2026-04-28 16:54 | 36.13309 | 13.79029 | 31996 ft | 436 kts | 285° |
| 2026-04-28 16:55 | 36.14954 | 13.71819 | 31996 ft | 435 kts | 285° |
| 2026-04-28 16:55 | 36.16604 | 13.64556 | 31996 ft | 436 kts | 285° |
| 2026-04-28 16:56 | 36.18232 | 13.57388 | 31997 ft | 436 kts | 285° |
| 2026-04-28 16:56 | 36.19877 | 13.50171 | 31998 ft | 436 kts | 285° |
| 2026-04-28 16:57 | 36.21512 | 13.42945 | 31999 ft | 436 kts | 285° |
| 2026-04-28 16:57 | 36.23131 | 13.35719 | 32000 ft | 436 kts | 285° |
| 2026-04-28 16:58 | 36.24745 | 13.28490 | 32000 ft | 436 kts | 285° |
| 2026-04-28 16:58 | 36.26371 | 13.21206 | 32000 ft | 435 kts | 285° |
| 2026-04-28 16:59 | 36.27718 | 13.15146 | 31998 ft | 435 kts | 285° |
| 2026-04-28 16:59 | 36.29320 | 13.07928 | 31997 ft | 435 kts | 285° |
| 2026-04-28 17:00 | 36.30930 | 13.00677 | 31998 ft | 435 kts | 285° |
| 2026-04-28 17:00 | 36.32536 | 12.93440 | 31999 ft | 436 kts | 285° |
| 2026-04-28 17:01 | 36.34127 | 12.86190 | 32001 ft | 436 kts | 285° |
| 2026-04-28 17:01 | 36.35717 | 12.78941 | 32001 ft | 435 kts | 285° |
| 2026-04-28 17:02 | 36.37300 | 12.71706 | 32000 ft | 435 kts | 285° |
| 2026-04-28 17:02 | 36.38877 | 12.64449 | 31997 ft | 435 kts | 285° |
| 2026-04-28 17:03 | 36.41231 | 12.53594 | 31990 ft | 435 kts | 284° |
| 2026-04-28 17:03 | 36.42807 | 12.46288 | 31997 ft | 435 kts | 284° |
| 2026-04-28 17:04 | 36.45163 | 12.35353 | 31997 ft | 435 kts | 284° |
| 2026-04-28 17:05 | 36.47493 | 12.24488 | 31996 ft | 435 kts | 284° |
| 2026-04-28 17:06 | 36.49818 | 12.13580 | 31996 ft | 435 kts | 284° |
| 2026-04-28 17:06 | 36.52003 | 12.02647 | 31996 ft | 434 kts | 283° |
| 2026-04-28 17:07 | 36.53378 | 11.95347 | 31996 ft | 434 kts | 283° |
| 2026-04-28 17:07 | 36.54778 | 11.87976 | 31996 ft | 434 kts | 283° |
| 2026-04-28 17:08 | 36.56174 | 11.80668 | 32005 ft | 439 kts | 283° |
| 2026-04-28 17:08 | 36.56892 | 11.76908 | 32010 ft | 450 kts | 283° |
| 2026-04-28 17:08 | 36.57619 | 11.73099 | 32009 ft | 455 kts | 283° |
| 2026-04-28 17:09 | 36.59089 | 11.65412 | 32005 ft | 453 kts | 283° |
| 2026-04-28 17:09 | 36.59813 | 11.61631 | 31276 ft | 451 kts | 283° |
| 2026-04-28 17:09 | 36.60533 | 11.57840 | 30371 ft | 454 kts | 283° |
| 2026-04-28 17:10 | 36.61253 | 11.54004 | 29665 ft | 450 kts | 283° |
| 2026-04-28 17:10 | 36.61974 | 11.50166 | 28994 ft | 446 kts | 283° |
| 2026-04-28 17:10 | 36.62674 | 11.46429 | 28359 ft | 442 kts | 283° |
| 2026-04-28 17:10 | 36.63373 | 11.42714 | 27731 ft | 438 kts | 283° |
| 2026-04-28 17:11 | 36.64057 | 11.39084 | 27129 ft | 434 kts | 283° |
| 2026-04-28 17:11 | 36.64757 | 11.35362 | 26505 ft | 429 kts | 283° |
| 2026-04-28 17:11 | 36.65429 | 11.31778 | 25902 ft | 425 kts | 283° |
| 2026-04-28 17:11 | 36.66095 | 11.28198 | 25304 ft | 421 kts | 283° |
| 2026-04-28 17:12 | 36.66760 | 11.24618 | 24696 ft | 418 kts | 283° |
| 2026-04-28 17:12 | 36.67412 | 11.21089 | 24106 ft | 414 kts | 282° |
| 2026-04-28 17:12 | 36.68051 | 11.17623 | 23524 ft | 410 kts | 282° |
| 2026-04-28 17:12 | 36.68691 | 11.14172 | 22966 ft | 407 kts | 283° |
| 2026-04-28 17:13 | 36.69325 | 11.10759 | 22427 ft | 403 kts | 282° |
| 2026-04-28 17:13 | 36.69940 | 11.07423 | 21920 ft | 400 kts | 282° |
| 2026-04-28 17:13 | 36.70577 | 11.03951 | 21357 ft | 394 kts | 282° |
| 2026-04-28 17:13 | 36.71176 | 11.00684 | 20456 ft | 389 kts | 282° |
| 2026-04-28 17:14 | 36.71780 | 10.97390 | 19558 ft | 384 kts | 282° |
| 2026-04-28 17:14 | 36.72375 | 10.94149 | 18670 ft | 379 kts | 282° |
| 2026-04-28 17:14 | 36.72958 | 10.90974 | 17948 ft | 379 kts | 282° |
| 2026-04-28 17:14 | 36.73544 | 10.87777 | 17492 ft | 375 kts | 282° |
| 2026-04-28 17:15 | 36.74130 | 10.84573 | 17017 ft | 372 kts | 282° |
| 2026-04-28 17:15 | 36.74708 | 10.81398 | 16527 ft | 369 kts | 282° |
| 2026-04-28 17:15 | 36.75265 | 10.78326 | 16057 ft | 366 kts | 282° |
| 2026-04-28 17:15 | 36.75828 | 10.75205 | 15580 ft | 364 kts | 282° |
| 2026-04-28 17:16 | 36.76373 | 10.72182 | 15108 ft | 361 kts | 282° |
| 2026-04-28 17:16 | 36.76928 | 10.69099 | 14638 ft | 359 kts | 282° |
| 2026-04-28 17:16 | 36.77465 | 10.66114 | 14173 ft | 356 kts | 282° |
| 2026-04-28 17:16 | 36.78040 | 10.63079 | 13697 ft | 354 kts | 284° |
| 2026-04-28 17:17 | 36.78665 | 10.60127 | 13230 ft | 351 kts | 285° |
| 2026-04-28 17:17 | 36.79318 | 10.57212 | 12742 ft | 349 kts | 285° |
| 2026-04-28 17:17 | 36.79982 | 10.54295 | 12272 ft | 346 kts | 285° |
| 2026-04-28 17:17 | 36.80648 | 10.51350 | 11766 ft | 344 kts | 285° |
| 2026-04-28 17:18 | 36.81289 | 10.48479 | 11264 ft | 341 kts | 285° |
| 2026-04-28 17:18 | 36.81915 | 10.45638 | 10826 ft | 336 kts | 285° |
| 2026-04-28 17:18 | 36.82520 | 10.42878 | 10700 ft | 322 kts | 285° |
| 2026-04-28 17:18 | 36.83094 | 10.40243 | 10572 ft | 309 kts | 284° |
| 2026-04-28 17:19 | 36.83649 | 10.37692 | 10387 ft | 299 kts | 284° |
| 2026-04-28 17:19 | 36.84187 | 10.35211 | 10044 ft | 296 kts | 284° |
| 2026-04-28 17:19 | 36.84723 | 10.32733 | 9654 ft | 294 kts | 284° |
| 2026-04-28 17:19 | 36.85251 | 10.30286 | 9255 ft | 292 kts | 284° |
| 2026-04-28 17:20 | 36.85610 | 10.28627 | 8983 ft | 291 kts | 284° |
| 2026-04-28 17:20 | 36.86133 | 10.26198 | 8568 ft | 289 kts | 284° |
| 2026-04-28 17:20 | 36.86658 | 10.23756 | 8149 ft | 287 kts | 284° |
| 2026-04-28 17:20 | 36.87180 | 10.21320 | 7713 ft | 284 kts | 284° |
| 2026-04-28 17:21 | 36.87688 | 10.18951 | 7037 ft | 281 kts | 284° |
| 2026-04-28 17:21 | 36.88199 | 10.16575 | 6324 ft | 278 kts | 284° |
| 2026-04-28 17:21 | 36.88698 | 10.14249 | 5619 ft | 276 kts | 284° |
| 2026-04-28 17:22 | 36.89660 | 10.09762 | 4247 ft | 270 kts | 284° |
| 2026-04-28 17:22 | 36.90147 | 10.07483 | 3534 ft | 267 kts | 284° |
| 2026-04-28 17:22 | 36.90623 | 10.05258 | 2958 ft | 260 kts | 284° |
| 2026-04-28 17:23 | 36.91454 | 10.01232 | 2656 ft | 217 kts | 275° |
| 2026-04-28 17:23 | 36.91167 | 9.99444 | 2604 ft | 212 kts | 236° |
| 2026-04-28 17:23 | 36.90060 | 9.98282 | 2556 ft | 212 kts | 199° |
| 2026-04-28 17:23 | 36.88625 | 9.98211 | 2511 ft | 213 kts | 161° |
| 2026-04-28 17:24 | 36.87434 | 9.99280 | 2465 ft | 205 kts | 123° |
| 2026-04-28 17:24 | 36.87028 | 10.00928 | 2407 ft | 199 kts | 87° |
| 2026-04-28 17:24 | 36.87312 | 10.02588 | 2365 ft | 197 kts | 75° |
| 2026-04-28 17:24 | 36.87660 | 10.04236 | 2322 ft | 197 kts | 75° |
| 2026-04-28 17:25 | 36.87999 | 10.05893 | 2281 ft | 195 kts | 76° |
| 2026-04-28 17:25 | 36.88622 | 10.08931 | 2190 ft | 164 kts | 76° |
| 2026-04-28 17:25 | 36.88776 | 10.10287 | 2110 ft | 156 kts | 95° |
| 2026-04-28 17:26 | 36.88499 | 10.11572 | 1985 ft | 149 kts | 111° |
| 2026-04-28 17:26 | 36.88136 | 10.12778 | 1933 ft | 150 kts | 111° |
| 2026-04-28 17:26 | 36.87779 | 10.14003 | 1709 ft | 149 kts | 110° |
| 2026-04-28 17:26 | 36.87422 | 10.15232 | 1467 ft | 148 kts | 110° |
| 2026-04-28 17:27 | 36.87072 | 10.16442 | 1224 ft | 148 kts | 110° |
| 2026-04-28 17:27 | 36.86712 | 10.17642 | 951 ft | 147 kts | 112° |
| 2026-04-28 17:27 | 36.86340 | 10.18839 | 670 ft | 147 kts | 112° |
| 2026-04-28 17:27 | 36.85968 | 10.20024 | 366 ft | 146 kts | 112° |
| 2026-04-28 17:28 | 36.85595 | 10.21201 | 171 ft | 145 kts | 111° |
| 2026-04-28 17:28 | 36.84916 | 10.23290 | 29 ft | 91 kts | 112° |
| 2026-04-28 17:28 | 36.84737 | 10.23816 | 31 ft | 42 kts | 112° |
| 2026-04-28 17:29 | 36.84667 | 10.24040 | 31 ft | 20 kts | 112° |
| 2026-04-28 17:29 | 36.84579 | 10.24050 | 31 ft | 15 kts | 208° |
| 2026-04-28 17:29 | 36.84555 | 10.24035 | 31 ft | 0 kts | 204° |
| 2026-04-28 17:30 | 36.84496 | 10.23989 | 31 ft | 12 kts | 236° |
| 2026-04-28 17:30 | 36.84500 | 10.23887 | 31 ft | 12 kts | 293° |
| 2026-04-28 17:31 | 36.84535 | 10.23784 | 31 ft | 15 kts | 293° |
| 2026-04-28 17:31 | 36.84648 | 10.23444 | 30 ft | 27 kts | 292° |
| 2026-04-28 17:32 | 36.84801 | 10.22987 | 30 ft | 30 kts | 292° |
| 2026-04-28 17:32 | 36.84875 | 10.22760 | 30 ft | 12 kts | 292° |
| 2026-04-28 17:32 | 36.84878 | 10.22751 | 31 ft | 0 kts | 292° |
| 2026-04-28 17:32 | 36.84886 | 10.22727 | 30 ft | 6 kts | 292° |
| 2026-04-28 17:33 | 36.84909 | 10.22657 | 33 ft | 11 kts | 291° |
| 2026-04-28 17:33 | 36.84948 | 10.22539 | 32 ft | 18 kts | 293° |
| 2026-04-28 17:33 | 36.84983 | 10.22421 | 31 ft | 10 kts | 281° |
| 2026-04-28 17:33 | 36.84963 | 10.22389 | 30 ft | 8 kts | 200° |
| 2026-04-28 17:34 | 36.84846 | 10.22350 | 30 ft | 19 kts | 191° |
| 2026-04-28 17:34 | 36.84717 | 10.22316 | 30 ft | 19 kts | 192° |
| 2026-04-28 17:34 | 36.84578 | 10.22279 | 30 ft | 21 kts | 192° |
| 2026-04-28 17:34 | 36.84497 | 10.22229 | 30 ft | 12 kts | 245° |
| 2026-04-28 17:35 | 36.84506 | 10.22131 | 30 ft | 11 kts | 287° |
| 2026-04-28 17:35 | 36.84540 | 10.22078 | 30 ft | 6 kts | 305° |
| 2026-04-28 17:35 | 36.84557 | 10.22038 | 30 ft | 5 kts | 291° |
| 2026-04-28 17:35 | 36.84567 | 10.22005 | 30 ft | 3 kts | 291° |